LNK152 FAOR-FLSK
Flight info
| Callsign | LNK152 |
|---|---|
| Flight time | 2h 8m |
| Altitude | 29000 |
| Route | NESAN1A NESAN UQ1 TAVLA UM215 VLS UA409 VND |
| Aircraft | RJ85/M-SDFGIRWY/LB1 |
Departure
| Time | 2026-05-06 14:44 |
|---|---|
| Airport | O.R. Tambo International Airport (FAOR) |
Arrival
| Time | 2026-05-06 16:53 |
|---|---|
| Airport | Simon Mwansa Kapwepwe International Airport (FLSK) |
| Time | Latitude | Longitude | Altitude | Speed | Heading |
|---|---|---|---|---|---|
| 2026-05-06 14:13 | -26.13693 | 28.22749 | 5546 ft | 0 kts | 11° |
| 2026-05-06 14:38 | -26.13680 | 28.22752 | 5550 ft | 4 kts | 11° |
| 2026-05-06 14:38 | -26.13664 | 28.22790 | 5546 ft | 9 kts | 100° |
| 2026-05-06 14:39 | -26.13690 | 28.22847 | 5549 ft | 9 kts | 153° |
| 2026-05-06 14:39 | -26.13725 | 28.22897 | 5549 ft | 10 kts | 95° |
| 2026-05-06 14:39 | -26.13734 | 28.22989 | 5546 ft | 14 kts | 96° |
| 2026-05-06 14:39 | -26.13746 | 28.23112 | 5548 ft | 16 kts | 96° |
| 2026-05-06 14:40 | -26.13758 | 28.23229 | 5546 ft | 14 kts | 96° |
| 2026-05-06 14:40 | -26.13793 | 28.23318 | 5547 ft | 12 kts | 149° |
| 2026-05-06 14:40 | -26.13875 | 28.23309 | 5548 ft | 14 kts | 196° |
| 2026-05-06 14:40 | -26.13973 | 28.23278 | 5554 ft | 16 kts | 195° |
| 2026-05-06 14:41 | -26.14092 | 28.23242 | 5553 ft | 19 kts | 196° |
| 2026-05-06 14:41 | -26.14218 | 28.23202 | 5554 ft | 15 kts | 191° |
| 2026-05-06 14:41 | -26.14299 | 28.23212 | 5558 ft | 9 kts | 166° |
| 2026-05-06 14:41 | -26.14345 | 28.23225 | 5560 ft | 5 kts | 166° |
| 2026-05-06 14:42 | -26.14390 | 28.23238 | 5561 ft | 8 kts | 166° |
| 2026-05-06 14:42 | -26.14453 | 28.23255 | 5560 ft | 11 kts | 166° |
| 2026-05-06 14:42 | -26.14537 | 28.23279 | 5564 ft | 14 kts | 166° |
| 2026-05-06 14:42 | -26.14600 | 28.23326 | 5566 ft | 9 kts | 106° |
| 2026-05-06 14:43 | -26.14617 | 28.23396 | 5566 ft | 9 kts | 105° |
| 2026-05-06 14:43 | -26.14626 | 28.23441 | 5567 ft | 3 kts | 67° |
| 2026-05-06 14:43 | -26.14581 | 28.23455 | 5566 ft | 22 kts | 15° |
| 2026-05-06 14:43 | -26.14209 | 28.23571 | 5567 ft | 86 kts | 15° |
| 2026-05-06 14:44 | -26.13448 | 28.23807 | 5550 ft | 139 kts | 15° |
| 2026-05-06 14:44 | -26.12408 | 28.24126 | 5744 ft | 161 kts | 12° |
| 2026-05-06 14:44 | -26.11333 | 28.24453 | 6441 ft | 159 kts | 8° |
| 2026-05-06 14:45 | -26.09166 | 28.25105 | 7551 ft | 163 kts | 8° |
| 2026-05-06 14:45 | -26.08061 | 28.25415 | 7994 ft | 163 kts | 360° |
| 2026-05-06 14:45 | -26.06951 | 28.25447 | 8435 ft | 159 kts | 353° |
| 2026-05-06 14:45 | -26.05829 | 28.25448 | 8760 ft | 168 kts | 353° |
| 2026-05-06 14:46 | -26.04603 | 28.25431 | 8815 ft | 188 kts | 353° |
| 2026-05-06 14:46 | -26.03219 | 28.25413 | 8874 ft | 204 kts | 354° |
| 2026-05-06 14:46 | -26.01732 | 28.25408 | 8858 ft | 231 kts | 354° |
| 2026-05-06 14:46 | -26.00038 | 28.25404 | 9065 ft | 253 kts | 355° |
| 2026-05-06 14:47 | -25.98215 | 28.25417 | 9416 ft | 270 kts | 356° |
| 2026-05-06 14:47 | -25.96287 | 28.25448 | 9863 ft | 283 kts | 356° |
| 2026-05-06 14:47 | -25.94307 | 28.25486 | 10503 ft | 288 kts | 356° |
| 2026-05-06 14:47 | -25.92259 | 28.25524 | 10927 ft | 299 kts | 356° |
| 2026-05-06 14:48 | -25.90172 | 28.25562 | 11543 ft | 302 kts | 355° |
| 2026-05-06 14:48 | -25.88063 | 28.25599 | 12154 ft | 304 kts | 354° |
| 2026-05-06 14:48 | -25.85938 | 28.25634 | 12792 ft | 306 kts | 354° |
| 2026-05-06 14:48 | -25.83808 | 28.25665 | 13437 ft | 307 kts | 353° |
| 2026-05-06 14:49 | -25.81659 | 28.25689 | 14017 ft | 309 kts | 352° |
| 2026-05-06 14:49 | -25.79506 | 28.25712 | 14533 ft | 310 kts | 352° |
| 2026-05-06 14:49 | -25.77339 | 28.25732 | 15068 ft | 311 kts | 351° |
| 2026-05-06 14:49 | -25.75347 | 28.25741 | 15545 ft | 311 kts | 351° |
| 2026-05-06 14:50 | -25.74909 | 28.25743 | 15646 ft | 311 kts | 351° |
| 2026-05-06 14:50 | -25.72736 | 28.25761 | 16030 ft | 313 kts | 351° |
| 2026-05-06 14:50 | -25.70560 | 28.25783 | 16479 ft | 311 kts | 351° |
| 2026-05-06 14:50 | -25.68426 | 28.25803 | 17142 ft | 304 kts | 350° |
| 2026-05-06 14:51 | -25.66311 | 28.25808 | 17572 ft | 304 kts | 349° |
| 2026-05-06 14:51 | -25.64191 | 28.25812 | 17956 ft | 305 kts | 349° |
| 2026-05-06 14:51 | -25.62066 | 28.25818 | 18313 ft | 306 kts | 349° |
| 2026-05-06 14:51 | -25.59938 | 28.25819 | 18613 ft | 306 kts | 349° |
| 2026-05-06 14:52 | -25.57800 | 28.25829 | 18896 ft | 308 kts | 349° |
| 2026-05-06 14:52 | -25.55653 | 28.25844 | 19180 ft | 309 kts | 349° |
| 2026-05-06 14:52 | -25.53503 | 28.25864 | 19473 ft | 310 kts | 349° |
| 2026-05-06 14:52 | -25.51339 | 28.25887 | 19766 ft | 312 kts | 349° |
| 2026-05-06 14:53 | -25.49167 | 28.25916 | 20052 ft | 313 kts | 349° |
| 2026-05-06 14:53 | -25.46988 | 28.25925 | 20330 ft | 314 kts | 349° |
| 2026-05-06 14:53 | -25.44799 | 28.25933 | 20601 ft | 315 kts | 349° |
| 2026-05-06 14:53 | -25.42602 | 28.25963 | 20900 ft | 316 kts | 349° |
| 2026-05-06 14:54 | -25.40399 | 28.25982 | 21162 ft | 317 kts | 349° |
| 2026-05-06 14:54 | -25.38191 | 28.25992 | 21442 ft | 318 kts | 349° |
| 2026-05-06 14:54 | -25.35974 | 28.26021 | 21708 ft | 319 kts | 349° |
| 2026-05-06 14:54 | -25.33751 | 28.26039 | 21969 ft | 320 kts | 349° |
| 2026-05-06 14:55 | -25.31521 | 28.26053 | 22235 ft | 321 kts | 349° |
| 2026-05-06 14:55 | -25.29284 | 28.26066 | 22499 ft | 322 kts | 349° |
| 2026-05-06 14:55 | -25.27037 | 28.26088 | 22754 ft | 324 kts | 349° |
| 2026-05-06 14:55 | -25.24782 | 28.26117 | 23001 ft | 325 kts | 349° |
| 2026-05-06 14:56 | -25.22519 | 28.26141 | 23253 ft | 326 kts | 349° |
| 2026-05-06 14:56 | -25.20249 | 28.26167 | 23507 ft | 327 kts | 349° |
| 2026-05-06 14:56 | -25.17972 | 28.26195 | 23730 ft | 328 kts | 349° |
| 2026-05-06 14:56 | -25.15684 | 28.26225 | 23853 ft | 331 kts | 349° |
| 2026-05-06 14:57 | -25.13367 | 28.26250 | 23975 ft | 334 kts | 349° |
| 2026-05-06 14:57 | -25.11038 | 28.26280 | 24186 ft | 335 kts | 349° |
| 2026-05-06 14:57 | -25.08707 | 28.26307 | 24401 ft | 335 kts | 349° |
| 2026-05-06 14:57 | -25.06371 | 28.26337 | 24611 ft | 336 kts | 349° |
| 2026-05-06 14:58 | -25.04041 | 28.26367 | 24865 ft | 335 kts | 349° |
| 2026-05-06 14:58 | -25.01710 | 28.26405 | 25117 ft | 335 kts | 349° |
| 2026-05-06 14:58 | -24.99379 | 28.26446 | 25369 ft | 334 kts | 349° |
| 2026-05-06 14:58 | -24.97065 | 28.26478 | 25621 ft | 332 kts | 349° |
| 2026-05-06 14:59 | -24.94749 | 28.26493 | 25874 ft | 332 kts | 348° |
| 2026-05-06 14:59 | -24.92449 | 28.26507 | 26124 ft | 331 kts | 348° |
| 2026-05-06 14:59 | -24.90150 | 28.26518 | 26370 ft | 330 kts | 348° |
| 2026-05-06 14:59 | -24.87856 | 28.26534 | 26561 ft | 330 kts | 348° |
| 2026-05-06 15:00 | -24.85557 | 28.26556 | 26746 ft | 331 kts | 349° |
| 2026-05-06 15:00 | -24.83258 | 28.26584 | 26983 ft | 330 kts | 349° |
| 2026-05-06 15:00 | -24.80968 | 28.26615 | 27211 ft | 328 kts | 348° |
| 2026-05-06 15:00 | -24.78685 | 28.26641 | 27420 ft | 328 kts | 349° |
| 2026-05-06 15:01 | -24.76404 | 28.26672 | 27642 ft | 327 kts | 349° |
| 2026-05-06 15:01 | -24.74127 | 28.26706 | 27863 ft | 327 kts | 349° |
| 2026-05-06 15:01 | -24.71854 | 28.26743 | 28084 ft | 326 kts | 348° |
| 2026-05-06 15:01 | -24.69596 | 28.26767 | 28295 ft | 322 kts | 348° |
| 2026-05-06 15:02 | -24.67361 | 28.26782 | 28496 ft | 321 kts | 348° |
| 2026-05-06 15:02 | -24.65128 | 28.26795 | 28696 ft | 321 kts | 348° |
| 2026-05-06 15:02 | -24.62896 | 28.26808 | 28908 ft | 321 kts | 348° |
| 2026-05-06 15:03 | -24.58396 | 28.26832 | 29060 ft | 327 kts | 348° |
| 2026-05-06 15:03 | -24.53796 | 28.26902 | 29112 ft | 338 kts | 349° |
| 2026-05-06 15:04 | -24.49008 | 28.26986 | 29112 ft | 349 kts | 349° |
| 2026-05-06 15:04 | -24.44083 | 28.27058 | 29115 ft | 359 kts | 349° |
| 2026-05-06 15:05 | -24.39028 | 28.27111 | 29110 ft | 367 kts | 349° |
| 2026-05-06 15:05 | -24.33883 | 28.27166 | 29113 ft | 372 kts | 349° |
| 2026-05-06 15:06 | -24.28702 | 28.27233 | 29094 ft | 374 kts | 349° |
| 2026-05-06 15:06 | -24.23482 | 28.27293 | 29102 ft | 376 kts | 349° |
| 2026-05-06 15:07 | -24.18266 | 28.27363 | 29103 ft | 374 kts | 349° |
| 2026-05-06 15:07 | -24.13927 | 28.27430 | 29098 ft | 375 kts | 349° |
| 2026-05-06 15:08 | -24.08708 | 28.27514 | 29103 ft | 376 kts | 350° |
| 2026-05-06 15:08 | -24.03480 | 28.27567 | 29058 ft | 376 kts | 349° |
| 2026-05-06 15:09 | -23.98219 | 28.27623 | 29096 ft | 380 kts | 350° |
| 2026-05-06 15:09 | -23.92923 | 28.27694 | 29104 ft | 381 kts | 350° |
| 2026-05-06 15:10 | -23.87614 | 28.27776 | 29098 ft | 382 kts | 350° |
| 2026-05-06 15:10 | -23.82310 | 28.27822 | 29094 ft | 381 kts | 350° |
| 2026-05-06 15:11 | -23.77012 | 28.27876 | 29082 ft | 380 kts | 349° |
| 2026-05-06 15:11 | -23.71698 | 28.27945 | 29079 ft | 384 kts | 350° |
| 2026-05-06 15:12 | -23.66342 | 28.28028 | 29074 ft | 386 kts | 350° |
| 2026-05-06 15:12 | -23.60979 | 28.28079 | 29081 ft | 385 kts | 350° |
| 2026-05-06 15:13 | -23.55627 | 28.28134 | 29072 ft | 385 kts | 350° |
| 2026-05-06 15:13 | -23.50270 | 28.28183 | 29072 ft | 385 kts | 350° |
| 2026-05-06 15:14 | -23.44904 | 28.28244 | 29050 ft | 386 kts | 351° |
| 2026-05-06 15:14 | -23.39511 | 28.28314 | 29066 ft | 388 kts | 351° |
| 2026-05-06 15:15 | -23.34113 | 28.28398 | 29063 ft | 388 kts | 351° |
| 2026-05-06 15:15 | -23.28726 | 28.28449 | 29066 ft | 387 kts | 351° |
| 2026-05-06 15:16 | -23.23337 | 28.28513 | 29058 ft | 388 kts | 351° |
| 2026-05-06 15:16 | -23.17980 | 28.28555 | 29013 ft | 387 kts | 351° |
| 2026-05-06 15:17 | -23.12565 | 28.28599 | 29046 ft | 391 kts | 351° |
| 2026-05-06 15:17 | -23.07121 | 28.28656 | 29055 ft | 392 kts | 351° |
| 2026-05-06 15:18 | -23.01667 | 28.28725 | 29047 ft | 391 kts | 351° |
| 2026-05-06 15:18 | -22.96238 | 28.28806 | 29050 ft | 391 kts | 351° |
| 2026-05-06 15:19 | -22.90799 | 28.28896 | 29020 ft | 391 kts | 352° |
| 2026-05-06 15:19 | -22.85345 | 28.28974 | 29040 ft | 393 kts | 352° |
| 2026-05-06 15:20 | -22.79877 | 28.29046 | 29042 ft | 393 kts | 352° |
| 2026-05-06 15:20 | -22.74417 | 28.29085 | 29047 ft | 392 kts | 352° |
| 2026-05-06 15:21 | -22.68957 | 28.29148 | 29049 ft | 392 kts | 351° |
| 2026-05-06 15:21 | -22.63497 | 28.29209 | 29047 ft | 394 kts | 353° |
| 2026-05-06 15:22 | -22.57991 | 28.29731 | 29044 ft | 400 kts | 358° |
| 2026-05-06 15:22 | -22.52467 | 28.30554 | 29049 ft | 401 kts | 359° |
| 2026-05-06 15:23 | -22.46942 | 28.31394 | 29050 ft | 401 kts | 358° |
| 2026-05-06 15:23 | -22.41416 | 28.32206 | 29052 ft | 401 kts | 358° |
| 2026-05-06 15:24 | -22.35891 | 28.32962 | 29044 ft | 400 kts | 358° |
| 2026-05-06 15:24 | -22.30367 | 28.33753 | 29041 ft | 401 kts | 358° |
| 2026-05-06 15:25 | -22.24828 | 28.34550 | 29046 ft | 402 kts | 358° |
| 2026-05-06 15:25 | -22.19319 | 28.35300 | 29054 ft | 402 kts | 358° |
| 2026-05-06 15:26 | -22.13774 | 28.36090 | 29048 ft | 401 kts | 358° |
| 2026-05-06 15:26 | -22.08234 | 28.36849 | 29046 ft | 402 kts | 358° |
| 2026-05-06 15:27 | -22.02696 | 28.37634 | 29011 ft | 401 kts | 359° |
| 2026-05-06 15:27 | -21.97131 | 28.38412 | 29046 ft | 405 kts | 359° |
| 2026-05-06 15:28 | -21.91532 | 28.39204 | 29048 ft | 406 kts | 359° |
| 2026-05-06 15:28 | -21.85942 | 28.40004 | 29046 ft | 405 kts | 359° |
| 2026-05-06 15:29 | -21.80356 | 28.40770 | 29049 ft | 405 kts | 359° |
| 2026-05-06 15:29 | -21.74764 | 28.41559 | 29048 ft | 405 kts | 358° |
| 2026-05-06 15:30 | -21.69164 | 28.42318 | 29042 ft | 407 kts | 359° |
| 2026-05-06 15:30 | -21.63544 | 28.43116 | 29054 ft | 407 kts | 359° |
| 2026-05-06 15:31 | -21.57926 | 28.43858 | 29065 ft | 406 kts | 358° |
| 2026-05-06 15:31 | -21.52303 | 28.44579 | 29063 ft | 406 kts | 358° |
| 2026-05-06 15:32 | -21.43881 | 28.45714 | 29033 ft | 406 kts | 359° |
| 2026-05-06 15:32 | -21.38296 | 28.46456 | 29054 ft | 408 kts | 359° |
| 2026-05-06 15:33 | -21.32651 | 28.47211 | 29068 ft | 409 kts | 359° |
| 2026-05-06 15:33 | -21.27002 | 28.47942 | 29067 ft | 409 kts | 359° |
| 2026-05-06 15:34 | -21.21352 | 28.48706 | 29071 ft | 408 kts | 359° |
| 2026-05-06 15:34 | -21.15712 | 28.49458 | 29068 ft | 408 kts | 359° |
| 2026-05-06 15:35 | -21.10058 | 28.50207 | 29066 ft | 410 kts | 359° |
| 2026-05-06 15:35 | -21.04389 | 28.50949 | 29073 ft | 411 kts | 359° |
| 2026-05-06 15:36 | -20.98706 | 28.51698 | 29078 ft | 411 kts | 359° |
| 2026-05-06 15:36 | -20.93027 | 28.52455 | 29077 ft | 411 kts | 359° |
| 2026-05-06 15:37 | -20.87352 | 28.53220 | 29086 ft | 411 kts | 359° |
| 2026-05-06 15:37 | -20.81678 | 28.53992 | 29070 ft | 412 kts | 359° |
| 2026-05-06 15:38 | -20.75966 | 28.54751 | 29096 ft | 415 kts | 359° |
| 2026-05-06 15:38 | -20.70242 | 28.55513 | 29095 ft | 414 kts | 359° |
| 2026-05-06 15:39 | -20.64566 | 28.56256 | 29095 ft | 413 kts | 359° |
| 2026-05-06 15:39 | -20.58850 | 28.57006 | 29097 ft | 414 kts | 360° |
| 2026-05-06 15:40 | -20.53132 | 28.57761 | 29071 ft | 414 kts | 359° |
| 2026-05-06 15:40 | -20.47404 | 28.58488 | 29078 ft | 415 kts | 360° |
| 2026-05-06 15:41 | -20.41678 | 28.59239 | 29095 ft | 415 kts | 0° |
| 2026-05-06 15:41 | -20.35951 | 28.59998 | 29088 ft | 415 kts | 0° |
| 2026-05-06 15:42 | -20.30222 | 28.60766 | 29093 ft | 415 kts | 0° |
| 2026-05-06 15:42 | -20.24494 | 28.61515 | 29093 ft | 414 kts | 359° |
| 2026-05-06 15:43 | -20.18779 | 28.62244 | 29081 ft | 412 kts | 0° |
| 2026-05-06 15:43 | -20.13084 | 28.62987 | 29088 ft | 412 kts | 0° |
| 2026-05-06 15:44 | -20.07384 | 28.63742 | 29089 ft | 413 kts | 0° |
| 2026-05-06 15:44 | -20.01687 | 28.64233 | 29081 ft | 407 kts | 354° |
| 2026-05-06 15:45 | -19.96059 | 28.63994 | 29083 ft | 404 kts | 349° |
| 2026-05-06 15:45 | -19.90459 | 28.63550 | 29079 ft | 402 kts | 350° |
| 2026-05-06 15:46 | -19.84883 | 28.63164 | 29078 ft | 402 kts | 351° |
| 2026-05-06 15:46 | -19.79291 | 28.62808 | 29074 ft | 403 kts | 351° |
| 2026-05-06 15:47 | -19.73689 | 28.62464 | 29066 ft | 403 kts | 351° |
| 2026-05-06 15:47 | -19.68089 | 28.62131 | 29047 ft | 403 kts | 351° |
| 2026-05-06 15:48 | -19.62495 | 28.61770 | 29043 ft | 402 kts | 350° |
| 2026-05-06 15:48 | -19.56899 | 28.61422 | 29036 ft | 403 kts | 351° |
| 2026-05-06 15:49 | -19.51308 | 28.61051 | 29036 ft | 403 kts | 351° |
| 2026-05-06 15:49 | -19.45738 | 28.60711 | 29041 ft | 403 kts | 351° |
| 2026-05-06 15:50 | -19.40140 | 28.60340 | 29038 ft | 403 kts | 351° |
| 2026-05-06 15:50 | -19.34543 | 28.60001 | 29014 ft | 402 kts | 351° |
| 2026-05-06 15:51 | -19.28947 | 28.59662 | 29019 ft | 402 kts | 351° |
| 2026-05-06 15:51 | -19.23373 | 28.59301 | 29024 ft | 401 kts | 351° |
| 2026-05-06 15:52 | -19.17788 | 28.58954 | 29012 ft | 402 kts | 351° |
| 2026-05-06 15:52 | -19.12199 | 28.58591 | 29012 ft | 402 kts | 351° |
| 2026-05-06 15:53 | -19.07549 | 28.58314 | 29004 ft | 402 kts | 351° |
| 2026-05-06 15:53 | -19.01964 | 28.57955 | 29000 ft | 402 kts | 352° |
| 2026-05-06 15:54 | -18.95470 | 28.57567 | 28991 ft | 402 kts | 351° |
| 2026-05-06 15:54 | -18.90787 | 28.57266 | 28991 ft | 403 kts | 352° |
| 2026-05-06 15:55 | -18.85195 | 28.56911 | 28990 ft | 402 kts | 351° |
| 2026-05-06 15:55 | -18.79602 | 28.56557 | 28985 ft | 402 kts | 351° |
| 2026-05-06 15:56 | -18.74017 | 28.56203 | 28969 ft | 402 kts | 352° |
| 2026-05-06 15:56 | -18.68418 | 28.55868 | 28977 ft | 403 kts | 351° |
| 2026-05-06 15:57 | -18.62819 | 28.55516 | 28969 ft | 404 kts | 352° |
| 2026-05-06 15:57 | -18.57200 | 28.55278 | 28972 ft | 404 kts | 352° |
| 2026-05-06 15:58 | -18.51585 | 28.55036 | 28965 ft | 404 kts | 352° |
| 2026-05-06 15:58 | -18.45972 | 28.54793 | 28968 ft | 404 kts | 352° |
| 2026-05-06 15:59 | -18.40393 | 28.54553 | 28958 ft | 404 kts | 352° |
| 2026-05-06 15:59 | -18.34765 | 28.54315 | 28955 ft | 405 kts | 353° |
| 2026-05-06 16:00 | -18.29123 | 28.54279 | 28970 ft | 407 kts | 356° |
| 2026-05-06 16:00 | -18.23428 | 28.54441 | 28950 ft | 406 kts | 356° |
| 2026-05-06 16:01 | -18.17816 | 28.54578 | 28954 ft | 406 kts | 356° |
| 2026-05-06 16:01 | -18.12156 | 28.54700 | 28936 ft | 407 kts | 356° |
| 2026-05-06 16:02 | -18.06486 | 28.54823 | 28949 ft | 408 kts | 356° |
| 2026-05-06 16:02 | -18.00819 | 28.54889 | 28940 ft | 406 kts | 354° |
| 2026-05-06 16:03 | -17.95186 | 28.54631 | 28938 ft | 405 kts | 352° |
| 2026-05-06 16:03 | -17.89562 | 28.54267 | 28924 ft | 405 kts | 351° |
| 2026-05-06 16:04 | -17.83945 | 28.53917 | 28905 ft | 405 kts | 352° |
| 2026-05-06 16:04 | -17.78313 | 28.53595 | 28908 ft | 406 kts | 351° |
| 2026-05-06 16:05 | -17.72669 | 28.53271 | 28904 ft | 406 kts | 352° |
| 2026-05-06 16:05 | -17.67027 | 28.52946 | 28898 ft | 406 kts | 352° |
| 2026-05-06 16:06 | -17.61387 | 28.52614 | 28898 ft | 406 kts | 352° |
| 2026-05-06 16:06 | -17.55744 | 28.52309 | 28898 ft | 406 kts | 352° |
| 2026-05-06 16:07 | -17.50109 | 28.51975 | 28882 ft | 405 kts | 352° |
| 2026-05-06 16:07 | -17.44483 | 28.51669 | 28883 ft | 405 kts | 352° |
| 2026-05-06 16:08 | -17.38865 | 28.51342 | 28878 ft | 405 kts | 352° |
| 2026-05-06 16:08 | -17.33236 | 28.51012 | 28881 ft | 405 kts | 352° |
| 2026-05-06 16:09 | -17.27607 | 28.50687 | 28875 ft | 405 kts | 352° |
| 2026-05-06 16:09 | -17.21980 | 28.50377 | 28874 ft | 405 kts | 352° |
| 2026-05-06 16:10 | -17.16341 | 28.50084 | 28865 ft | 406 kts | 352° |
| 2026-05-06 16:10 | -17.10736 | 28.49770 | 28868 ft | 406 kts | 352° |
| 2026-05-06 16:11 | -17.05097 | 28.49456 | 28860 ft | 406 kts | 352° |
| 2026-05-06 16:11 | -16.99455 | 28.49144 | 28859 ft | 406 kts | 352° |
| 2026-05-06 16:12 | -16.93811 | 28.48842 | 28842 ft | 406 kts | 352° |
| 2026-05-06 16:12 | -16.88158 | 28.48530 | 28851 ft | 407 kts | 352° |
| 2026-05-06 16:13 | -16.82502 | 28.48215 | 28853 ft | 407 kts | 352° |
| 2026-05-06 16:13 | -16.76843 | 28.47906 | 28847 ft | 407 kts | 352° |
| 2026-05-06 16:14 | -16.71192 | 28.47575 | 28845 ft | 406 kts | 352° |
| 2026-05-06 16:14 | -16.65533 | 28.47260 | 28842 ft | 407 kts | 352° |
| 2026-05-06 16:15 | -16.59875 | 28.46968 | 28843 ft | 407 kts | 353° |
| 2026-05-06 16:15 | -16.54206 | 28.46756 | 28845 ft | 408 kts | 353° |
| 2026-05-06 16:16 | -16.48577 | 28.46533 | 28848 ft | 407 kts | 353° |
| 2026-05-06 16:16 | -16.42911 | 28.46310 | 28864 ft | 408 kts | 353° |
| 2026-05-06 16:17 | -16.37240 | 28.46077 | 28849 ft | 408 kts | 353° |
| 2026-05-06 16:17 | -16.31572 | 28.45862 | 28850 ft | 408 kts | 353° |
| 2026-05-06 16:18 | -16.25878 | 28.45655 | 28857 ft | 410 kts | 353° |
| 2026-05-06 16:18 | -16.20176 | 28.45419 | 28869 ft | 410 kts | 353° |
| 2026-05-06 16:19 | -16.14486 | 28.45209 | 28868 ft | 409 kts | 353° |
| 2026-05-06 16:19 | -16.08794 | 28.44962 | 28877 ft | 410 kts | 353° |
| 2026-05-06 16:20 | -16.03092 | 28.44756 | 28880 ft | 410 kts | 353° |
| 2026-05-06 16:20 | -15.97389 | 28.44536 | 28878 ft | 411 kts | 354° |
| 2026-05-06 16:21 | -15.91675 | 28.44325 | 28896 ft | 411 kts | 353° |
| 2026-05-06 16:21 | -15.85967 | 28.44093 | 28890 ft | 410 kts | 354° |
| 2026-05-06 16:22 | -15.80264 | 28.43873 | 28906 ft | 410 kts | 353° |
| 2026-05-06 16:22 | -15.74567 | 28.43645 | 28894 ft | 410 kts | 354° |
| 2026-05-06 16:23 | -15.68862 | 28.43424 | 28910 ft | 410 kts | 354° |
| 2026-05-06 16:23 | -15.63195 | 28.43210 | 28916 ft | 410 kts | 354° |
| 2026-05-06 16:24 | -15.57497 | 28.42982 | 28922 ft | 410 kts | 354° |
| 2026-05-06 16:24 | -15.51800 | 28.42750 | 28916 ft | 410 kts | 354° |
| 2026-05-06 16:25 | -15.46100 | 28.42537 | 29059 ft | 410 kts | 354° |
| 2026-05-06 16:25 | -15.40402 | 28.42299 | 29074 ft | 410 kts | 354° |
| 2026-05-06 16:26 | -15.34702 | 28.42100 | 29086 ft | 410 kts | 355° |
| 2026-05-06 16:26 | -15.28977 | 28.42353 | 29085 ft | 413 kts | 1° |
| 2026-05-06 16:27 | -15.23250 | 28.42971 | 29078 ft | 414 kts | 2° |
| 2026-05-06 16:27 | -15.17524 | 28.43649 | 29043 ft | 414 kts | 2° |
| 2026-05-06 16:28 | -15.11796 | 28.44278 | 29011 ft | 414 kts | 2° |
| 2026-05-06 16:28 | -15.06070 | 28.44892 | 28965 ft | 413 kts | 2° |
| 2026-05-06 16:29 | -15.00340 | 28.45491 | 28938 ft | 414 kts | 2° |
| 2026-05-06 16:29 | -14.94600 | 28.46092 | 28915 ft | 415 kts | 2° |
| 2026-05-06 16:30 | -14.89829 | 28.46597 | 28919 ft | 414 kts | 2° |
| 2026-05-06 16:30 | -14.83130 | 28.47313 | 28920 ft | 414 kts | 2° |
| 2026-05-06 16:31 | -14.77438 | 28.47927 | 28919 ft | 414 kts | 2° |
| 2026-05-06 16:31 | -14.71695 | 28.48545 | 28916 ft | 415 kts | 2° |
| 2026-05-06 16:32 | -14.65947 | 28.49160 | 28922 ft | 416 kts | 2° |
| 2026-05-06 16:32 | -14.60197 | 28.49780 | 28920 ft | 415 kts | 2° |
| 2026-05-06 16:33 | -14.54447 | 28.50373 | 28919 ft | 415 kts | 2° |
| 2026-05-06 16:34 | -14.45827 | 28.51297 | 28925 ft | 415 kts | 2° |
| 2026-05-06 16:34 | -14.40068 | 28.51896 | 28921 ft | 417 kts | 2° |
| 2026-05-06 16:35 | -14.34288 | 28.52514 | 28923 ft | 417 kts | 2° |
| 2026-05-06 16:35 | -14.28518 | 28.53131 | 28920 ft | 417 kts | 2° |
| 2026-05-06 16:36 | -14.22738 | 28.53721 | 28926 ft | 417 kts | 2° |
| 2026-05-06 16:36 | -14.17010 | 28.54338 | 28926 ft | 417 kts | 2° |
| 2026-05-06 16:37 | -14.11236 | 28.54930 | 28922 ft | 417 kts | 3° |
| 2026-05-06 16:37 | -14.05456 | 28.55555 | 28928 ft | 418 kts | 3° |
| 2026-05-06 16:38 | -13.99667 | 28.56152 | 28931 ft | 418 kts | 3° |
| 2026-05-06 16:38 | -13.93876 | 28.56776 | 28931 ft | 418 kts | 2° |
| 2026-05-06 16:39 | -13.88092 | 28.57366 | 28931 ft | 418 kts | 3° |
| 2026-05-06 16:39 | -13.82310 | 28.57978 | 28937 ft | 418 kts | 2° |
| 2026-05-06 16:40 | -13.76518 | 28.58577 | 28933 ft | 420 kts | 3° |
| 2026-05-06 16:40 | -13.71680 | 28.59104 | 28781 ft | 423 kts | 3° |
| 2026-05-06 16:40 | -13.68751 | 28.59416 | 28527 ft | 423 kts | 3° |
| 2026-05-06 16:41 | -13.65826 | 28.59711 | 28269 ft | 422 kts | 3° |
| 2026-05-06 16:41 | -13.62901 | 28.60025 | 28016 ft | 423 kts | 3° |
| 2026-05-06 16:41 | -13.59970 | 28.60341 | 27706 ft | 425 kts | 3° |
| 2026-05-06 16:41 | -13.57030 | 28.60635 | 27055 ft | 423 kts | 3° |
| 2026-05-06 16:42 | -13.54115 | 28.60942 | 26332 ft | 419 kts | 3° |
| 2026-05-06 16:42 | -13.51228 | 28.61255 | 25633 ft | 415 kts | 3° |
| 2026-05-06 16:42 | -13.48366 | 28.61556 | 24952 ft | 412 kts | 3° |
| 2026-05-06 16:42 | -13.45526 | 28.61832 | 24273 ft | 408 kts | 2° |
| 2026-05-06 16:43 | -13.42742 | 28.61629 | 23628 ft | 398 kts | 341° |
| 2026-05-06 16:43 | -13.40330 | 28.60396 | 22910 ft | 390 kts | 321° |
| 2026-05-06 16:43 | -13.38321 | 28.58499 | 22161 ft | 386 kts | 311° |
| 2026-05-06 16:43 | -13.36621 | 28.56382 | 21437 ft | 383 kts | 308° |
| 2026-05-06 16:44 | -13.35010 | 28.54222 | 20713 ft | 379 kts | 307° |
| 2026-05-06 16:44 | -13.33475 | 28.52085 | 20023 ft | 375 kts | 306° |
| 2026-05-06 16:44 | -13.31941 | 28.49896 | 19321 ft | 370 kts | 306° |
| 2026-05-06 16:44 | -13.30484 | 28.47777 | 18657 ft | 366 kts | 306° |
| 2026-05-06 16:45 | -13.29039 | 28.45649 | 17961 ft | 362 kts | 306° |
| 2026-05-06 16:45 | -13.27612 | 28.43529 | 17192 ft | 358 kts | 306° |
| 2026-05-06 16:45 | -13.26199 | 28.41446 | 16459 ft | 355 kts | 305° |
| 2026-05-06 16:45 | -13.24790 | 28.39383 | 15728 ft | 351 kts | 305° |
| 2026-05-06 16:46 | -13.23382 | 28.37349 | 15020 ft | 348 kts | 307° |
| 2026-05-06 16:46 | -13.21655 | 28.35652 | 14324 ft | 345 kts | 328° |
| 2026-05-06 16:46 | -13.19509 | 28.34574 | 13637 ft | 342 kts | 334° |
| 2026-05-06 16:46 | -13.17346 | 28.33564 | 12880 ft | 340 kts | 334° |
| 2026-05-06 16:47 | -13.15188 | 28.32576 | 12138 ft | 339 kts | 335° |
| 2026-05-06 16:47 | -13.13015 | 28.31666 | 11410 ft | 337 kts | 343° |
| 2026-05-06 16:47 | -13.10703 | 28.31530 | 10807 ft | 332 kts | 7° |
| 2026-05-06 16:47 | -13.08473 | 28.31870 | 10581 ft | 316 kts | 7° |
| 2026-05-06 16:48 | -13.06338 | 28.32106 | 10369 ft | 303 kts | 4° |
| 2026-05-06 16:48 | -13.04264 | 28.32262 | 10023 ft | 297 kts | 3° |
| 2026-05-06 16:48 | -13.02218 | 28.32372 | 9698 ft | 286 kts | 2° |
| 2026-05-06 16:48 | -13.00291 | 28.32459 | 9286 ft | 268 kts | 2° |
| 2026-05-06 16:49 | -12.98490 | 28.32542 | 8939 ft | 250 kts | 8° |
| 2026-05-06 16:49 | -12.96939 | 28.33199 | 8274 ft | 243 kts | 43° |
| 2026-05-06 16:49 | -12.96076 | 28.34640 | 7572 ft | 239 kts | 78° |
| 2026-05-06 16:49 | -12.96021 | 28.36321 | 6887 ft | 236 kts | 93° |
| 2026-05-06 16:50 | -12.96096 | 28.37992 | 6387 ft | 230 kts | 94° |
| 2026-05-06 16:50 | -12.96185 | 28.39573 | 6077 ft | 215 kts | 94° |
| 2026-05-06 16:50 | -12.96226 | 28.41060 | 5816 ft | 202 kts | 91° |
| 2026-05-06 16:50 | -12.96230 | 28.42439 | 5609 ft | 188 kts | 91° |
| 2026-05-06 16:51 | -12.96226 | 28.43733 | 5373 ft | 180 kts | 91° |
| 2026-05-06 16:51 | -12.96218 | 28.44962 | 5151 ft | 164 kts | 91° |
| 2026-05-06 16:51 | -12.96210 | 28.46087 | 4934 ft | 149 kts | 91° |
| 2026-05-06 16:51 | -12.96203 | 28.47086 | 4770 ft | 134 kts | 91° |
| 2026-05-06 16:52 | -12.96198 | 28.48035 | 4614 ft | 132 kts | 91° |
| 2026-05-06 16:52 | -12.96198 | 28.48974 | 4473 ft | 132 kts | 91° |
| 2026-05-06 16:52 | -12.96197 | 28.49911 | 4336 ft | 131 kts | 90° |
| 2026-05-06 16:52 | -12.96184 | 28.50833 | 4289 ft | 123 kts | 89° |
| 2026-05-06 16:53 | -12.96182 | 28.51548 | 4292 ft | 78 kts | 89° |
| 2026-05-06 16:53 | -12.96179 | 28.51896 | 4292 ft | 25 kts | 89° |
| 2026-05-06 16:53 | -12.96180 | 28.52016 | 4287 ft | 12 kts | 105° |
| 2026-05-06 16:53 | -12.96260 | 28.52035 | 4283 ft | 13 kts | 180° |
| 2026-05-06 16:54 | -12.96353 | 28.52035 | 4282 ft | 13 kts | 180° |
| 2026-05-06 16:54 | -12.96419 | 28.52030 | 4281 ft | 5 kts | 215° |
| 2026-05-06 16:54 | -12.96433 | 28.51998 | 4283 ft | 6 kts | 262° |
| 2026-05-06 16:54 | -12.96436 | 28.51950 | 4284 ft | 7 kts | 267° |
| 2026-05-06 16:55 | -12.96438 | 28.51910 | 4285 ft | 5 kts | 267° |
| 2026-05-06 16:55 | -12.96440 | 28.51864 | 4289 ft | 9 kts | 267° |
| 2026-05-06 16:55 | -12.96443 | 28.51796 | 4292 ft | 5 kts | 255° |
| 2026-05-06 16:55 | -12.96456 | 28.51784 | 4293 ft | 2 kts | 203° |
| 2026-05-06 16:56 | -12.96479 | 28.51782 | 4299 ft | 5 kts | 182° |
| 2026-05-06 16:56 | -12.96528 | 28.51782 | 4295 ft | 5 kts | 179° |
| 2026-05-06 16:56 | -12.96530 | 28.51782 | 4295 ft | 0 kts | 179° |